createdAt,value
2017-01-28T00:01:11.293Z,0
2017-01-28T00:02:24.506Z,0
2017-01-28T00:03:52.193Z,0
2017-01-28T00:05:06.012Z,0
2017-01-28T00:06:19.233Z,0
2017-01-28T00:07:33.052Z,0
2017-01-28T00:08:47.073Z,0
2017-01-28T00:10:00.285Z,0
2017-01-28T00:11:14.103Z,0
2017-01-28T00:12:27.321Z,0
2017-01-28T00:13:41.391Z,0
2017-01-28T00:15:09.078Z,0
2017-01-28T00:16:22.290Z,0
2017-01-28T00:17:36.113Z,0
2017-01-28T00:18:49.930Z,0
2017-01-28T00:20:03.796Z,0
2017-01-28T00:21:17.613Z,0
2017-01-28T00:22:30.827Z,0
2017-01-28T00:23:44.900Z,0
2017-01-28T00:24:58.721Z,0
2017-01-28T00:26:12.547Z,0
2017-01-28T00:29:07.312Z,0
2017-01-28T00:30:21.125Z,0
2017-01-28T00:31:34.942Z,0
2017-01-28T00:32:48.186Z,0
2017-01-28T00:34:02.259Z,0
2017-01-28T00:35:15.473Z,0
2017-01-28T00:36:43.159Z,0
2017-01-28T00:37:56.978Z,0
2017-01-28T00:39:24.927Z,0
2017-01-28T00:40:38.743Z,0
2017-01-28T00:41:52.566Z,0
2017-01-28T00:43:06.389Z,0
2017-01-28T00:44:18.997Z,0
2017-01-28T00:45:32.815Z,0
2017-01-28T00:46:46.640Z,0
2017-01-28T00:48:00.459Z,0
2017-01-28T00:49:13.873Z,0
2017-01-28T00:50:27.694Z,0
2017-01-28T00:51:41.514Z,0
2017-01-28T00:52:55.332Z,0
2017-01-28T00:54:09.153Z,0
2017-01-28T00:56:50.441Z,0
2017-01-28T00:58:04.267Z,0
2017-01-28T01:00:44.560Z,0
2017-01-28T01:01:58.392Z,0
2017-01-28T01:03:13.412Z,0
2017-01-28T01:04:27.233Z,0
2017-01-28T01:05:41.053Z,0
2017-01-28T01:06:53.660Z,0
2017-01-28T01:08:21.343Z,0
2017-01-28T01:09:35.165Z,0
2017-01-28T01:10:48.989Z,0
2017-01-28T01:12:16.676Z,0
2017-01-28T01:13:30.497Z,0
2017-01-28T01:14:44.318Z,0
2017-01-28T01:15:58.343Z,0
2017-01-28T01:17:11.557Z,0
2017-01-28T01:18:25.399Z,0
2017-01-28T01:19:39.848Z,0
2017-01-28T01:20:53.773Z,0
2017-01-28T01:22:08.210Z,0
2017-01-28T01:23:23.613Z,0
2017-01-28T01:24:38.499Z,0
2017-01-28T01:25:53.056Z,0
2017-01-28T01:27:20.979Z,0
2017-01-28T01:28:35.107Z,0
2017-01-28T01:29:48.368Z,0
2017-01-28T01:31:02.435Z,0
2017-01-28T01:33:43.481Z,0
2017-01-28T01:34:57.410Z,0
2017-01-28T01:36:10.631Z,0
2017-01-28T01:37:24.456Z,0
2017-01-28T01:40:05.364Z,0
2017-01-28T01:41:19.534Z,0
2017-01-28T01:42:33.364Z,0
2017-01-28T01:43:46.583Z,0
2017-01-28T01:44:59.808Z,0
2017-01-28T01:46:13.882Z,0
2017-01-28T01:47:26.496Z,0
2017-01-28T01:48:40.317Z,0
2017-01-28T01:49:53.535Z,0
2017-01-28T01:51:07.369Z,0
2017-01-28T01:52:21.188Z,0
2017-01-28T01:53:35.018Z,0
2017-01-28T01:54:48.234Z,0
2017-01-28T01:56:02.101Z,0
2017-01-28T01:57:16.276Z,0
2017-01-28T01:58:30.107Z,0
2017-01-28T01:59:43.940Z,0
2017-01-28T02:00:57.769Z,0
2017-01-28T02:02:11.861Z,0
2017-01-28T02:03:25.090Z,0
2017-01-28T02:04:38.918Z,0
2017-01-28T02:05:51.533Z,0
2017-01-28T02:07:05.369Z,0
2017-01-28T02:08:19.419Z,0
2017-01-28T02:09:33.273Z,0
2017-01-28T02:10:47.125Z,0
2017-01-28T02:13:29.029Z,0
2017-01-28T02:14:42.259Z,0
2017-01-28T02:15:56.107Z,0
2017-01-28T02:17:09.948Z,0
2017-01-28T02:18:37.657Z,0
2017-01-28T02:19:51.500Z,0
2017-01-28T02:21:05.343Z,0
2017-01-28T02:22:19.186Z,0
2017-01-28T02:23:33.019Z,0
2017-01-28T02:25:00.724Z,0
2017-01-28T02:26:28.434Z,0
2017-01-28T02:27:42.272Z,0
2017-01-28T02:28:55.761Z,0
2017-01-28T02:30:08.400Z,0
2017-01-28T02:31:21.636Z,0
2017-01-28T02:32:35.518Z,0
2017-01-28T02:33:49.355Z,0
2017-01-28T02:35:03.211Z,0
2017-01-28T02:36:17.061Z,0
2017-01-28T02:37:30.900Z,0
2017-01-28T02:38:44.781Z,0
2017-01-28T02:39:57.765Z,0
2017-01-28T02:41:10.991Z,0
2017-01-28T02:42:23.613Z,0
2017-01-28T02:43:37.458Z,0
2017-01-28T02:45:05.365Z,0
2017-01-28T02:46:18.599Z,0
2017-01-28T02:47:32.439Z,0
2017-01-28T02:49:00.128Z,0
2017-01-28T02:50:14.325Z,0
2017-01-28T02:51:28.163Z,0
2017-01-28T02:52:42.006Z,0
2017-01-28T02:53:55.851Z,0
2017-01-28T02:55:23.559Z,0
2017-01-28T02:56:36.802Z,0
2017-01-28T02:57:50.676Z,0
2017-01-28T02:59:04.522Z,0
2017-01-28T03:00:17.765Z,0
2017-01-28T03:01:44.261Z,0
2017-01-28T03:02:58.111Z,0
2017-01-28T03:04:10.743Z,0
2017-01-28T03:05:24.003Z,0
2017-01-28T03:06:37.838Z,0
2017-01-28T03:07:51.056Z,0
2017-01-28T03:09:04.301Z,0
2017-01-28T03:10:17.743Z,0
2017-01-28T03:11:31.590Z,0
2017-01-28T03:12:44.832Z,0
2017-01-28T03:13:58.679Z,0
2017-01-28T03:15:11.919Z,0
2017-01-28T03:16:25.510Z,0
2017-01-28T03:17:39.359Z,0
2017-01-28T03:18:53.210Z,0
2017-01-28T03:20:07.058Z,0
2017-01-28T03:21:21.258Z,0
2017-01-28T03:22:35.107Z,0
2017-01-28T03:23:48.962Z,0
2017-01-28T03:25:01.593Z,0
2017-01-28T03:26:15.442Z,0
2017-01-28T03:27:29.288Z,0
2017-01-28T03:28:43.140Z,0
2017-01-28T03:29:56.985Z,0
2017-01-28T03:31:10.225Z,0
2017-01-28T03:32:23.798Z,0
2017-01-28T03:33:37.620Z,0
2017-01-28T03:35:05.312Z,0
2017-01-28T03:36:18.538Z,0
2017-01-28T03:37:32.629Z,0
2017-01-28T03:38:46.465Z,0
2017-01-28T03:40:00.292Z,0
2017-01-28T03:41:12.928Z,0
2017-01-28T03:42:27.116Z,0
2017-01-28T03:43:40.984Z,0
2017-01-28T03:44:54.830Z,0
2017-01-28T03:46:22.539Z,0
2017-01-28T03:47:36.394Z,0
2017-01-28T03:48:50.239Z,0
2017-01-28T03:50:04.086Z,0
2017-01-28T03:51:17.324Z,0
2017-01-28T03:52:29.540Z,0
2017-01-28T03:53:43.364Z,0
2017-01-28T03:54:56.586Z,0
2017-01-28T03:56:10.434Z,0
2017-01-28T03:57:24.298Z,0
2017-01-28T03:58:38.391Z,0
2017-01-28T03:59:52.243Z,0
2017-01-28T04:01:06.067Z,0
2017-01-28T04:02:19.905Z,0
2017-01-28T04:03:33.999Z,0
2017-01-28T04:04:47.833Z,0
2017-01-28T04:06:01.682Z,0
2017-01-28T04:07:14.923Z,0
2017-01-28T04:08:28.784Z,0
2017-01-28T04:09:42.634Z,0
2017-01-28T04:10:56.493Z,0
2017-01-28T04:13:52.163Z,0
2017-01-28T04:15:05.408Z,0
2017-01-28T04:16:18.661Z,0
2017-01-28T04:17:46.376Z,0
2017-01-28T04:19:00.479Z,0
2017-01-28T04:20:14.334Z,0
2017-01-28T04:21:28.181Z,0
2017-01-28T04:22:55.891Z,0
2017-01-28T04:24:09.493Z,0
2017-01-28T04:25:23.343Z,0
2017-01-28T04:26:37.207Z,0
2017-01-28T04:27:51.057Z,0
2017-01-28T04:29:05.164Z,0
2017-01-28T04:30:19.015Z,0
2017-01-28T04:31:32.865Z,0
2017-01-28T04:32:46.717Z,0
2017-01-28T04:34:00.916Z,0
2017-01-28T04:35:14.161Z,0
2017-01-28T04:36:28.010Z,0
2017-01-28T04:37:41.858Z,0
2017-01-28T04:38:55.709Z,0
2017-01-28T04:40:08.950Z,0
2017-01-28T04:41:22.799Z,0
2017-01-28T04:42:36.647Z,0
2017-01-28T04:43:50.501Z,0
2017-01-28T04:45:04.624Z,0
2017-01-28T04:46:17.862Z,0
2017-01-28T04:47:31.712Z,0
2017-01-28T04:48:45.560Z,0
2017-01-28T04:49:59.408Z,0
2017-01-28T04:51:13.257Z,0
2017-01-28T04:52:27.117Z,0
2017-01-28T04:53:40.968Z,0
2017-01-28T04:54:54.210Z,0
2017-01-28T04:56:07.801Z,0
2017-01-28T04:57:21.041Z,0
2017-01-28T04:58:34.889Z,0
2017-01-28T04:59:48.139Z,0
2017-01-28T05:01:02.241Z,0
2017-01-28T05:02:15.481Z,0
2017-01-28T05:03:29.330Z,0
2017-01-28T05:04:43.178Z,0
2017-01-28T05:05:57.030Z,0
2017-01-28T05:07:10.882Z,0
2017-01-28T05:08:24.732Z,0
2017-01-28T05:09:38.580Z,0
2017-01-28T05:12:19.734Z,0
2017-01-28T05:13:33.579Z,0
2017-01-28T05:14:47.432Z,0
2017-01-28T05:16:01.279Z,0
2017-01-28T05:17:15.124Z,0
2017-01-28T05:18:28.974Z,0
2017-01-28T05:19:42.823Z,0
2017-01-28T05:20:56.676Z,0
2017-01-28T05:22:10.824Z,0
2017-01-28T05:23:24.669Z,0
2017-01-28T05:24:38.515Z,0
2017-01-28T05:25:52.365Z,0
2017-01-28T05:27:06.215Z,0
2017-01-28T05:28:20.269Z,0
2017-01-28T05:29:34.116Z,0
2017-01-28T05:30:47.969Z,0
2017-01-28T05:32:01.821Z,0
2017-01-28T05:33:15.311Z,0
2017-01-28T05:34:29.161Z,0
2017-01-28T05:35:43.045Z,0
2017-01-28T05:36:56.901Z,0
2017-01-28T05:38:10.753Z,0
2017-01-28T05:39:23.998Z,0
2017-01-28T05:40:37.850Z,0
2017-01-28T05:41:51.701Z,0
2017-01-28T05:43:05.559Z,0
2017-01-28T05:44:19.000Z,0
2017-01-28T05:45:32.848Z,0
2017-01-28T05:46:46.695Z,0
2017-01-28T05:48:00.546Z,0
2017-01-28T05:49:14.392Z,0
2017-01-28T05:50:28.243Z,0
2017-01-28T05:51:42.092Z,0
2017-01-28T05:52:55.940Z,0
2017-01-28T05:54:10.147Z,0
2017-01-28T05:55:23.992Z,0
2017-01-28T05:56:37.845Z,0
2017-01-28T05:57:51.696Z,0
2017-01-28T05:59:05.542Z,0
2017-01-28T06:00:19.739Z,0
2017-01-28T06:01:33.589Z,0
2017-01-28T06:02:47.820Z,0
2017-01-28T06:04:01.704Z,0
2017-01-28T06:05:15.804Z,0
2017-01-28T06:06:29.656Z,0
2017-01-28T06:07:43.502Z,0
2017-01-28T06:08:57.350Z,0
2017-01-28T06:10:10.895Z,0
2017-01-28T06:11:24.136Z,0
2017-01-28T06:12:37.992Z,0
2017-01-28T06:13:51.835Z,0
2017-01-28T06:15:05.694Z,0
2017-01-28T06:16:18.935Z,0
2017-01-28T06:17:32.783Z,0
2017-01-28T06:18:46.628Z,0
2017-01-28T06:20:00.478Z,0
2017-01-28T06:21:14.324Z,0
2017-01-28T06:22:28.171Z,0
2017-01-28T06:23:42.021Z,0
2017-01-28T06:24:55.871Z,0
2017-01-28T06:26:10.078Z,0
2017-01-28T06:27:23.956Z,0
2017-01-28T06:28:37.804Z,0
2017-01-28T06:30:05.512Z,0
2017-01-28T06:31:19.107Z,0
2017-01-28T06:32:32.955Z,0
2017-01-28T06:33:46.826Z,0
2017-01-28T06:35:00.682Z,0
2017-01-28T06:36:14.539Z,0
2017-01-28T06:37:27.783Z,0
2017-01-28T06:38:41.632Z,0
2017-01-28T06:39:55.477Z,0
2017-01-28T06:41:09.329Z,0
2017-01-28T06:42:23.377Z,0
2017-01-28T06:43:37.224Z,0
2017-01-28T06:44:51.073Z,0
2017-01-28T06:46:04.923Z,0
2017-01-28T06:47:18.420Z,0
2017-01-28T06:48:32.270Z,0
2017-01-28T06:49:46.117Z,0
2017-01-28T06:50:59.969Z,0
2017-01-28T06:52:13.838Z,0
2017-01-28T06:53:27.683Z,0
2017-01-28T06:54:41.530Z,0
2017-01-28T06:55:55.383Z,0
2017-01-28T06:57:09.226Z,0
2017-01-28T06:58:22.469Z,0
2017-01-28T06:59:36.321Z,0
2017-01-28T07:00:50.170Z,0
2017-01-28T07:02:03.435Z,0
2017-01-28T07:03:17.640Z,0
2017-01-28T07:04:31.493Z,0
2017-01-28T07:05:45.344Z,0
2017-01-28T07:06:59.190Z,0
2017-01-28T07:08:13.037Z,0
2017-01-28T07:09:27.237Z,0
2017-01-28T07:10:41.117Z,0
2017-01-28T07:11:54.968Z,0
2017-01-28T07:13:08.830Z,0
2017-01-28T07:14:21.825Z,0
2017-01-28T07:15:35.673Z,0
2017-01-28T07:16:49.548Z,0
2017-01-28T07:18:17.263Z,0
2017-01-28T07:20:59.202Z,0
2017-01-28T07:22:13.063Z,0
2017-01-28T07:23:26.911Z,0
2017-01-28T07:24:40.761Z,0
2017-01-28T07:25:54.614Z,0
2017-01-28T07:27:08.465Z,0
2017-01-28T07:28:21.100Z,0
2017-01-28T07:29:48.807Z,0
2017-01-28T07:31:02.051Z,0
2017-01-28T07:32:15.903Z,0
2017-01-28T07:33:29.145Z,0
2017-01-28T07:34:42.993Z,0
2017-01-28T07:35:56.843Z,0
2017-01-28T07:37:10.699Z,0
2017-01-28T07:38:23.941Z,0
2017-01-28T07:39:38.145Z,0
2017-01-28T07:40:51.996Z,0
2017-01-28T07:42:05.843Z,0
2017-01-28T07:43:19.690Z,0
2017-01-28T07:44:33.886Z,0
2017-01-28T07:45:47.734Z,0
2017-01-28T07:47:01.582Z,0
2017-01-28T07:48:14.841Z,0
2017-01-28T07:49:28.691Z,0
2017-01-28T07:50:42.908Z,0
2017-01-28T07:51:56.763Z,0
2017-01-28T07:53:10.613Z,0
2017-01-28T07:54:24.467Z,0
2017-01-28T07:55:38.313Z,0
2017-01-28T07:56:52.163Z,0
2017-01-28T07:58:06.018Z,0
2017-01-28T07:59:19.872Z,0
2017-01-28T08:00:33.720Z,0
2017-01-28T08:01:47.566Z,0
2017-01-28T08:03:01.413Z,0
2017-01-28T08:04:14.649Z,0
2017-01-28T08:05:28.498Z,0
2017-01-28T08:06:42.698Z,0
2017-01-28T08:07:56.542Z,0
2017-01-28T08:09:09.814Z,0
2017-01-28T08:10:23.661Z,0
2017-01-28T08:11:37.861Z,0
2017-01-28T08:12:51.713Z,0
2017-01-28T08:14:05.566Z,0
2017-01-28T08:15:18.807Z,0
2017-01-28T08:16:32.049Z,0
2017-01-28T08:17:46.100Z,0
2017-01-28T08:18:59.961Z,0
2017-01-28T08:20:13.819Z,0
2017-01-28T08:21:27.666Z,0
2017-01-28T08:22:40.906Z,0
2017-01-28T08:23:54.146Z,0
2017-01-28T08:25:07.393Z,0
2017-01-28T08:26:21.241Z,0
2017-01-28T08:27:34.482Z,0
2017-01-28T08:28:48.585Z,0
2017-01-28T08:30:02.442Z,0
2017-01-28T08:31:15.682Z,0
2017-01-28T08:32:43.393Z,0
2017-01-28T08:33:57.593Z,0
2017-01-28T08:35:10.843Z,0
2017-01-28T08:36:24.084Z,0
2017-01-28T08:37:37.932Z,0
2017-01-28T08:38:52.135Z,0
2017-01-28T08:40:05.981Z,0
2017-01-28T08:41:19.220Z,0
2017-01-28T08:42:33.069Z,0
2017-01-28T08:43:47.266Z,0
2017-01-28T08:45:01.118Z,0
2017-01-28T08:46:13.753Z,0
2017-01-28T08:47:27.601Z,0
2017-01-28T08:48:41.448Z,0
2017-01-28T08:49:55.043Z,0
2017-01-28T08:51:08.891Z,0
2017-01-28T08:52:22.736Z,0
2017-01-28T08:53:36.585Z,0
2017-01-28T08:54:50.077Z,0
2017-01-28T08:56:03.921Z,0
2017-01-28T08:57:17.769Z,0
2017-01-28T08:58:31.007Z,0
2017-01-28T08:59:45.109Z,0
2017-01-28T09:00:58.956Z,0
2017-01-28T09:02:12.211Z,5
2017-01-28T09:03:24.849Z,5
2017-01-28T09:04:38.695Z,5
2017-01-28T09:05:52.747Z,5
2017-01-28T09:07:06.600Z,5
2017-01-28T09:08:33.104Z,5
2017-01-28T09:09:46.960Z,5
2017-01-28T09:11:00.390Z,5
2017-01-28T09:12:13.631Z,5
2017-01-28T09:13:27.487Z,5
2017-01-28T09:14:41.334Z,5
2017-01-28T09:15:55.172Z,5
2017-01-28T09:17:09.012Z,5
2017-01-28T09:18:22.236Z,5
2017-01-28T09:19:36.060Z,5
2017-01-28T09:20:50.092Z,5
2017-01-28T09:22:03.324Z,5
2017-01-28T09:23:17.170Z,5
2017-01-28T09:24:30.400Z,5
2017-01-28T09:25:44.234Z,5
2017-01-28T09:26:57.817Z,5
2017-01-28T09:28:11.040Z,5
2017-01-28T09:29:24.879Z,5
2017-01-28T09:30:38.720Z,5
2017-01-28T09:31:52.557Z,5
2017-01-28T09:33:06.389Z,5
2017-01-28T09:34:19.625Z,5
2017-01-28T09:35:33.464Z,5
2017-01-28T09:36:47.294Z,5
2017-01-28T09:38:01.481Z,5
2017-01-28T09:39:15.317Z,10
2017-01-28T09:40:28.555Z,10
2017-01-28T09:41:42.391Z,10
2017-01-28T09:42:56.560Z,10
2017-01-28T09:44:10.409Z,10
2017-01-28T09:45:23.643Z,10
2017-01-28T09:46:37.478Z,10
2017-01-28T09:47:51.571Z,10
2017-01-28T09:49:04.797Z,10
2017-01-28T09:50:18.033Z,10
2017-01-28T09:51:31.884Z,10
2017-01-28T09:52:45.725Z,10
2017-01-28T09:53:59.751Z,10
2017-01-28T09:55:13.611Z,15
2017-01-28T09:56:26.858Z,15
2017-01-28T09:57:40.706Z,15
2017-01-28T09:58:54.878Z,15
2017-01-28T10:00:08.118Z,15
2017-01-28T10:01:21.356Z,15
2017-01-28T10:02:35.174Z,20
2017-01-28T10:03:48.392Z,20
2017-01-28T10:05:02.567Z,20
2017-01-28T10:06:16.402Z,20
2017-01-28T10:07:30.227Z,20
2017-01-28T10:08:44.060Z,20
2017-01-28T10:09:58.262Z,20
2017-01-28T10:11:12.129Z,20
2017-01-28T10:12:25.964Z,20
2017-01-28T10:15:07.083Z,20
2017-01-28T10:16:20.314Z,20
2017-01-28T10:17:34.148Z,20
2017-01-28T10:18:47.971Z,20
2017-01-28T10:20:02.045Z,20
2017-01-28T10:21:15.265Z,20
2017-01-28T10:23:56.179Z,20
2017-01-28T10:25:09.644Z,20
2017-01-28T10:26:22.879Z,20
2017-01-28T10:27:36.702Z,25
2017-01-28T10:28:49.913Z,25
2017-01-28T10:30:04.043Z,25
2017-01-28T10:31:16.663Z,25
2017-01-28T10:32:29.886Z,25
2017-01-28T10:33:43.707Z,25
2017-01-28T10:34:56.922Z,20
2017-01-28T10:36:10.750Z,25
2017-01-28T10:37:23.964Z,20
2017-01-28T10:38:37.783Z,20
2017-01-28T10:39:51.606Z,20
2017-01-28T10:41:05.180Z,20
2017-01-28T10:42:17.794Z,20
2017-01-28T10:43:31.612Z,20
2017-01-28T10:44:45.434Z,20
2017-01-28T10:45:59.261Z,20
2017-01-28T10:47:12.826Z,20
2017-01-28T10:48:26.040Z,20
2017-01-28T10:49:39.865Z,20
2017-01-28T10:50:53.687Z,20
2017-01-28T10:52:07.888Z,20
2017-01-28T10:53:21.107Z,20
2017-01-28T10:54:34.931Z,20
2017-01-28T10:55:48.145Z,20
2017-01-28T10:57:01.973Z,20
2017-01-28T10:58:15.828Z,20
2017-01-28T10:59:43.520Z,20
2017-01-28T11:00:57.367Z,15
2017-01-28T11:02:11.219Z,15
2017-01-28T11:03:25.267Z,15
2017-01-28T11:04:39.178Z,20
2017-01-28T11:05:53.172Z,20
2017-01-28T11:07:06.997Z,25
2017-01-28T11:08:21.028Z,25
2017-01-28T11:09:34.319Z,25
2017-01-28T11:11:02.185Z,20
2017-01-28T11:12:15.652Z,25
2017-01-28T11:13:29.834Z,25
2017-01-28T11:14:43.686Z,25
2017-01-28T11:15:57.529Z,20
2017-01-28T11:17:11.490Z,25
2017-01-28T11:18:25.016Z,25
2017-01-28T11:19:38.896Z,25
2017-01-28T11:20:52.745Z,20
2017-01-28T11:22:06.690Z,20
2017-01-28T11:23:20.545Z,25
2017-01-28T11:24:34.426Z,25
2017-01-28T11:25:48.254Z,25
2017-01-28T11:27:02.170Z,25
2017-01-28T11:28:14.868Z,25
2017-01-28T11:29:28.960Z,20
2017-01-28T11:30:42.980Z,20
2017-01-28T11:31:56.293Z,20
2017-01-28T11:33:10.187Z,20
2017-01-28T11:34:24.123Z,25
2017-01-28T11:35:37.992Z,20
2017-01-28T11:36:51.905Z,25
2017-01-28T11:38:05.949Z,25
2017-01-28T11:39:33.012Z,25
2017-01-28T11:40:47.081Z,20
2017-01-28T11:42:00.516Z,25
2017-01-28T11:43:13.753Z,25
2017-01-28T11:44:27.592Z,20
2017-01-28T11:45:41.430Z,25
2017-01-28T11:46:55.281Z,25
2017-01-28T11:48:08.516Z,25
2017-01-28T11:49:21.737Z,25
2017-01-28T11:50:35.774Z,25
2017-01-28T11:51:49.626Z,25
2017-01-28T11:53:03.465Z,25
2017-01-28T11:54:17.296Z,25
2017-01-28T11:55:31.136Z,25
2017-01-28T11:56:45.319Z,20
2017-01-28T11:57:59.164Z,20
2017-01-28T11:59:12.987Z,20
2017-01-28T12:00:26.394Z,20
2017-01-28T12:01:40.343Z,20
2017-01-28T12:02:54.302Z,20
2017-01-28T12:04:07.669Z,25
2017-01-28T12:05:20.984Z,20
2017-01-28T12:06:35.149Z,25
2017-01-28T12:07:49.078Z,25
2017-01-28T12:09:03.158Z,25
2017-01-28T12:10:17.314Z,30
2017-01-28T12:11:31.225Z,30
2017-01-28T12:12:45.205Z,35
2017-01-28T12:13:59.211Z,35
2017-01-28T12:15:12.605Z,35
2017-01-28T12:16:25.381Z,35
2017-01-28T12:17:38.823Z,35
2017-01-28T12:18:52.783Z,35
2017-01-28T12:20:06.279Z,35
2017-01-28T12:21:33.619Z,35
2017-01-28T12:22:48.023Z,35
2017-01-28T12:24:01.880Z,35
2017-01-28T12:25:15.152Z,35
2017-01-28T12:26:28.974Z,40
2017-01-28T12:27:42.995Z,35
2017-01-28T12:28:56.821Z,35
2017-01-28T12:30:10.649Z,30
2017-01-28T12:31:24.505Z,30
2017-01-28T12:32:38.326Z,30
2017-01-28T12:33:52.416Z,35
2017-01-28T12:35:05.649Z,40
2017-01-28T12:36:19.476Z,45
2017-01-28T12:39:01.253Z,45
2017-01-28T12:40:15.102Z,50
2017-01-28T12:41:28.924Z,55
2017-01-28T12:42:42.756Z,60
2017-01-28T12:43:56.598Z,60
2017-01-28T12:45:10.446Z,60
2017-01-28T12:46:24.306Z,60
2017-01-28T12:47:38.128Z,60
2017-01-28T12:48:51.607Z,60
2017-01-28T12:50:05.437Z,65
2017-01-28T12:51:18.675Z,70
2017-01-28T12:52:32.507Z,70
2017-01-28T12:53:46.390Z,70
2017-01-28T12:55:00.434Z,70
2017-01-28T12:56:14.290Z,75
2017-01-28T12:57:28.156Z,75
2017-01-28T12:58:42.032Z,70
2017-01-28T12:59:55.909Z,75
2017-01-28T13:01:09.756Z,70
2017-01-28T13:02:24.234Z,75
2017-01-28T13:03:38.087Z,75
2017-01-28T13:04:52.224Z,75
2017-01-28T13:06:05.496Z,80
2017-01-28T13:07:18.758Z,75
2017-01-28T13:08:32.594Z,80
2017-01-28T13:09:46.421Z,80
2017-01-28T13:11:00.280Z,80
2017-01-28T13:12:14.132Z,80
2017-01-28T13:13:27.971Z,75
2017-01-28T13:14:41.804Z,75
2017-01-28T13:15:55.651Z,75
2017-01-28T13:17:09.490Z,85
2017-01-28T13:18:22.716Z,80
2017-01-28T13:19:36.548Z,75
2017-01-28T13:20:50.629Z,80
2017-01-28T13:22:04.454Z,80
2017-01-28T13:23:18.278Z,80
2017-01-28T13:24:32.112Z,80
2017-01-28T13:25:59.810Z,80
2017-01-28T13:27:13.030Z,80
2017-01-28T13:28:25.649Z,80
2017-01-28T13:29:39.484Z,75
2017-01-28T13:30:53.313Z,80
2017-01-28T13:32:06.541Z,80
2017-01-28T13:33:20.372Z,80
2017-01-28T13:34:34.205Z,80
2017-01-28T13:35:48.046Z,85
2017-01-28T13:38:29.917Z,90
2017-01-28T13:39:43.782Z,90
2017-01-28T13:40:57.037Z,85
2017-01-28T13:42:11.074Z,85
2017-01-28T13:43:24.950Z,75
2017-01-28T13:44:38.824Z,80
2017-01-28T13:46:06.544Z,80
2017-01-28T13:47:34.614Z,65
2017-01-28T13:48:48.472Z,75
2017-01-28T13:50:01.697Z,80
2017-01-28T13:51:14.956Z,80
2017-01-28T13:52:28.992Z,80
2017-01-28T13:53:42.215Z,85
2017-01-28T13:54:56.043Z,85
2017-01-28T13:56:09.872Z,95
2017-01-28T13:57:23.448Z,85
2017-01-28T13:58:37.287Z,90
2017-01-28T13:59:50.510Z,50
2017-01-28T14:01:04.354Z,85
2017-01-28T14:02:18.205Z,85
2017-01-28T14:03:32.283Z,55
2017-01-28T14:04:46.133Z,85
2017-01-28T14:05:59.365Z,85
2017-01-28T14:07:13.194Z,85
2017-01-28T14:08:26.093Z,85
2017-01-28T14:09:39.963Z,90
2017-01-28T14:10:53.807Z,85
2017-01-28T14:12:07.040Z,85
2017-01-28T14:13:20.294Z,85
2017-01-28T14:14:34.145Z,90
2017-01-28T14:15:48.002Z,85
2017-01-28T14:17:01.842Z,80
2017-01-28T14:18:29.587Z,80
2017-01-28T14:21:10.747Z,85
2017-01-28T14:22:24.682Z,85
2017-01-28T14:23:38.543Z,85
2017-01-28T14:24:52.653Z,85
2017-01-28T14:26:06.627Z,85
2017-01-28T14:27:34.390Z,85
2017-01-28T14:28:48.282Z,75
2017-01-28T14:30:02.275Z,80
2017-01-28T14:31:16.335Z,40
2017-01-28T14:32:30.282Z,85
2017-01-28T14:33:44.180Z,90
2017-01-28T14:34:58.095Z,90
2017-01-28T14:36:12.035Z,90
2017-01-28T14:37:25.922Z,90
2017-01-28T14:38:39.759Z,75
2017-01-28T14:39:53.593Z,85
2017-01-28T14:41:20.688Z,30
2017-01-28T14:42:33.303Z,30
2017-01-28T14:43:46.525Z,35
2017-01-28T14:45:00.362Z,85
2017-01-28T14:46:13.588Z,35
2017-01-28T14:47:26.809Z,35
2017-01-28T14:48:40.036Z,35
2017-01-28T14:49:53.259Z,85
2017-01-28T14:51:07.352Z,30
2017-01-28T14:52:21.197Z,30
2017-01-28T14:53:34.418Z,40
2017-01-28T14:54:47.642Z,35
2017-01-28T14:56:01.748Z,40
2017-01-28T14:57:14.370Z,90
2017-01-28T14:58:28.204Z,75
2017-01-28T14:59:42.033Z,75
2017-01-28T15:00:55.867Z,65
2017-01-28T15:02:09.902Z,30
2017-01-28T15:03:23.124Z,30
2017-01-28T15:04:36.954Z,30
2017-01-28T15:06:04.652Z,30
2017-01-28T15:07:18.737Z,25
2017-01-28T15:08:32.602Z,35
2017-01-28T15:09:45.830Z,90
2017-01-28T15:10:59.052Z,90
2017-01-28T15:12:12.485Z,90
2017-01-28T15:13:26.335Z,90
2017-01-28T15:14:40.180Z,90
2017-01-28T15:15:54.047Z,40
2017-01-28T15:17:07.283Z,35
2017-01-28T15:18:21.329Z,30
2017-01-28T15:19:35.172Z,30
2017-01-28T15:20:49.000Z,35
2017-01-28T15:22:02.841Z,45
2017-01-28T15:23:16.081Z,40
2017-01-28T15:24:43.792Z,85
2017-01-28T15:25:57.635Z,80
2017-01-28T15:27:10.865Z,80
2017-01-28T15:28:24.313Z,75
2017-01-28T15:29:38.149Z,80
2017-01-28T15:30:51.982Z,80
2017-01-28T15:32:05.205Z,80
2017-01-28T15:33:18.447Z,40
2017-01-28T15:34:45.541Z,40
2017-01-28T15:35:59.399Z,35
2017-01-28T15:37:13.231Z,40
2017-01-28T15:38:27.319Z,40
2017-01-28T15:39:41.149Z,40
2017-01-28T15:40:54.982Z,45
2017-01-28T15:42:08.810Z,55
2017-01-28T15:43:22.037Z,45
2017-01-28T15:44:35.871Z,50
2017-01-28T15:45:49.709Z,80
2017-01-28T15:47:02.941Z,55
2017-01-28T15:48:17.040Z,75
2017-01-28T15:49:30.878Z,75
2017-01-28T15:50:44.714Z,75
2017-01-28T15:51:58.550Z,75
2017-01-28T15:53:12.395Z,70
2017-01-28T15:54:25.872Z,25
2017-01-28T15:55:39.117Z,30
2017-01-28T15:56:52.967Z,40
2017-01-28T15:58:06.801Z,70
2017-01-28T15:59:20.851Z,35
2017-01-28T16:00:34.675Z,30
2017-01-28T16:01:48.502Z,25
2017-01-28T16:03:02.330Z,25
2017-01-28T16:04:16.157Z,25
2017-01-28T16:05:29.995Z,25
2017-01-28T16:06:43.819Z,30
2017-01-28T16:07:57.651Z,40
2017-01-28T16:09:11.479Z,40
2017-01-28T16:10:24.902Z,40
2017-01-28T16:11:38.728Z,40
2017-01-28T16:12:52.553Z,40
2017-01-28T16:14:06.578Z,35
2017-01-28T16:15:20.650Z,40
2017-01-28T16:16:33.867Z,45
2017-01-28T16:17:47.687Z,40
2017-01-28T16:19:01.512Z,40
2017-01-28T16:20:15.335Z,35
2017-01-28T16:21:29.353Z,35
2017-01-28T16:22:43.181Z,45
2017-01-28T16:23:57.016Z,45
2017-01-28T16:25:10.232Z,60
2017-01-28T16:26:24.261Z,45
2017-01-28T16:27:38.090Z,40
2017-01-28T16:28:51.937Z,40
2017-01-28T16:30:05.764Z,50
2017-01-28T16:31:18.389Z,55
2017-01-28T16:32:31.613Z,40
2017-01-28T16:33:45.440Z,50
2017-01-28T16:34:59.290Z,45
2017-01-28T16:36:13.110Z,45
2017-01-28T16:37:27.128Z,40
2017-01-28T16:38:40.358Z,40
2017-01-28T16:39:54.175Z,40
2017-01-28T16:41:07.996Z,40
2017-01-28T16:42:22.068Z,35
2017-01-28T16:43:35.887Z,40
2017-01-28T16:44:49.714Z,40
2017-01-28T16:46:02.956Z,40
2017-01-28T16:47:16.782Z,40
2017-01-28T16:48:29.999Z,40
2017-01-28T16:49:43.825Z,40
2017-01-28T16:50:57.648Z,40
2017-01-28T16:52:11.474Z,45
2017-01-28T16:53:24.939Z,40
2017-01-28T16:54:38.757Z,40
2017-01-28T16:55:52.602Z,50
2017-01-28T16:57:06.428Z,45
2017-01-28T16:58:19.848Z,40
2017-01-28T16:59:33.684Z,55
2017-01-28T17:02:14.609Z,45
2017-01-28T17:03:42.044Z,45
2017-01-28T17:04:55.880Z,55
2017-01-28T17:06:09.711Z,55
2017-01-28T17:07:23.544Z,50
2017-01-28T17:08:37.747Z,45
2017-01-28T17:09:51.566Z,40
2017-01-28T17:11:05.396Z,35
2017-01-28T17:12:18.616Z,30
2017-01-28T17:13:32.464Z,30
2017-01-28T17:14:46.480Z,35
2017-01-28T17:16:00.303Z,40
2017-01-28T17:17:28.014Z,40
2017-01-28T17:18:41.849Z,40
2017-01-28T17:20:09.806Z,35
2017-01-28T17:21:23.630Z,40
2017-01-28T17:22:37.459Z,40
2017-01-28T17:23:51.321Z,55
2017-01-28T17:25:05.361Z,55
2017-01-28T17:26:19.196Z,50
2017-01-28T17:27:33.027Z,50
2017-01-28T17:28:46.865Z,50
2017-01-28T17:30:00.930Z,55
2017-01-28T17:31:14.755Z,55
2017-01-28T17:32:28.576Z,50
2017-01-28T17:33:42.397Z,50
2017-01-28T17:34:56.225Z,45
2017-01-28T17:36:10.047Z,35
2017-01-28T17:37:23.873Z,40
2017-01-28T17:38:37.701Z,55
2017-01-28T17:39:51.522Z,55
2017-01-28T17:41:18.613Z,65
2017-01-28T17:42:31.831Z,45
2017-01-28T17:43:45.661Z,65
2017-01-28T17:44:59.491Z,80
2017-01-28T17:46:12.971Z,50
2017-01-28T17:47:26.188Z,40
2017-01-28T17:48:53.880Z,30
2017-01-28T17:50:07.705Z,30
2017-01-28T17:51:21.786Z,40
2017-01-28T17:52:35.609Z,45
2017-01-28T17:53:48.823Z,45
2017-01-28T17:55:02.659Z,40
2017-01-28T17:56:16.227Z,35
2017-01-28T17:57:29.437Z,40
2017-01-28T17:58:43.269Z,35
2017-01-28T17:59:57.092Z,35
2017-01-28T18:01:11.176Z,30
2017-01-28T18:02:25.001Z,35
2017-01-28T18:03:38.826Z,40
2017-01-28T18:04:52.654Z,35
2017-01-28T18:06:06.485Z,35
2017-01-28T18:07:19.918Z,30
2017-01-28T18:08:33.744Z,30
2017-01-28T18:09:47.567Z,35
2017-01-28T18:11:01.389Z,35
2017-01-28T18:12:15.439Z,40
2017-01-28T18:13:29.265Z,35
2017-01-28T18:14:43.123Z,25
2017-01-28T18:15:56.969Z,20
2017-01-28T18:17:10.449Z,25
2017-01-28T18:18:24.283Z,20
2017-01-28T18:19:38.098Z,20
2017-01-28T18:20:51.931Z,20
2017-01-28T18:22:05.751Z,25
2017-01-28T18:23:19.922Z,25